createdAt,value
2024-02-04T00:02:00.168Z,1.13
2024-02-04T00:04:28.585Z,1.10
2024-02-04T00:06:56.831Z,1.57
2024-02-04T00:09:28.991Z,1.57
2024-02-04T00:11:59.766Z,1.50
2024-02-04T00:14:27.870Z,1.10
2024-02-04T00:16:55.930Z,1.53
2024-02-04T00:19:24.143Z,1.37
2024-02-04T00:21:52.401Z,1.43
2024-02-04T00:24:21.020Z,1.33
2024-02-04T00:26:50.582Z,1.10
2024-02-04T00:29:18.816Z,1.53
2024-02-04T00:31:46.881Z,1.30
2024-02-04T00:34:15.145Z,1.57
2024-02-04T00:36:43.472Z,1.13
2024-02-04T00:39:12.518Z,1.50
2024-02-04T00:41:40.620Z,1.50
2024-02-04T00:44:10.138Z,1.33
2024-02-04T00:46:38.233Z,1.20
2024-02-04T00:49:06.477Z,1.90
2024-02-04T00:51:34.878Z,1.40
2024-02-04T00:54:02.996Z,1.53
2024-02-04T00:56:31.079Z,1.27
2024-02-04T00:58:59.121Z,1.53
2024-02-04T01:01:28.856Z,1.53
2024-02-04T01:03:57.140Z,1.40
2024-02-04T01:06:26.154Z,1.50
2024-02-04T01:08:54.269Z,1.30
2024-02-04T01:11:22.653Z,1.17
2024-02-04T01:13:50.764Z,1.37
2024-02-04T01:16:18.837Z,1.50
2024-02-04T01:18:49.428Z,1.40
2024-02-04T01:21:17.510Z,1.90
2024-02-04T01:23:45.563Z,1.67
2024-02-04T01:26:13.607Z,1.90
2024-02-04T01:28:41.699Z,1.90
2024-02-04T01:31:09.858Z,1.50
2024-02-04T01:33:38.095Z,1.83
2024-02-04T01:36:08.204Z,1.47
2024-02-04T01:38:36.281Z,1.53
2024-02-04T01:41:04.447Z,1.93
2024-02-04T01:43:32.579Z,1.80
2024-02-04T01:46:00.836Z,1.30
2024-02-04T01:48:29.238Z,1.70
2024-02-04T01:50:59.466Z,1.60
2024-02-04T01:53:30.332Z,1.40
2024-02-04T01:55:58.830Z,1.40
2024-02-04T01:58:27.167Z,1.53
2024-02-04T02:00:55.661Z,1.43
2024-02-04T02:03:27.202Z,1.40
2024-02-04T02:05:56.307Z,1.37
2024-02-04T02:08:24.600Z,1.20
2024-02-04T02:11:03.713Z,1.50
2024-02-04T02:13:34.101Z,1.50
2024-02-04T02:16:14.317Z,1.70
2024-02-04T02:18:46.494Z,1.67
2024-02-04T02:21:29.523Z,1.47
2024-02-04T02:24:10.922Z,1.90
2024-02-04T02:26:40.491Z,1.00
2024-02-04T02:29:09.677Z,1.73
2024-02-04T02:31:47.146Z,1.50
2024-02-04T02:34:30.303Z,1.40
2024-02-04T02:37:13.776Z,1.40
2024-02-04T02:39:48.168Z,1.40
2024-02-04T02:42:18.920Z,1.50
2024-02-04T02:44:48.366Z,1.30
2024-02-04T02:47:17.467Z,1.50
2024-02-04T02:49:45.945Z,2.10
2024-02-04T02:52:14.183Z,2.00
2024-02-04T02:54:42.308Z,1.53
2024-02-04T02:57:10.418Z,1.50
2024-02-04T02:59:39.902Z,1.50
2024-02-04T03:02:07.984Z,1.60
2024-02-04T03:04:36.154Z,1.10
2024-02-04T03:07:04.307Z,1.93
2024-02-04T03:09:32.415Z,1.37
2024-02-04T03:12:00.508Z,2.17
2024-02-04T03:14:28.562Z,1.80
2024-02-04T03:16:57.963Z,1.77
2024-02-04T03:19:26.020Z,1.70
2024-02-04T03:21:54.181Z,1.87
2024-02-04T03:24:22.286Z,1.60
2024-02-04T03:26:50.595Z,1.60
2024-02-04T03:29:18.704Z,1.77
2024-02-04T03:31:46.867Z,1.60
2024-02-04T03:34:16.381Z,1.80
2024-02-04T03:36:44.555Z,1.30
2024-02-04T03:39:12.588Z,2.53
2024-02-04T03:41:41.035Z,2.13
2024-02-04T03:44:09.178Z,1.50
2024-02-04T03:46:37.630Z,1.90
2024-02-04T03:49:05.768Z,1.40
2024-02-04T03:51:35.343Z,1.47
2024-02-04T03:54:03.437Z,2.10
2024-02-04T03:56:31.963Z,2.00
2024-02-04T03:59:00.212Z,1.70
2024-02-04T04:01:28.338Z,1.80
2024-02-04T04:03:56.508Z,1.90
2024-02-04T04:06:24.733Z,1.43
2024-02-04T04:08:54.321Z,1.50
2024-02-04T04:11:22.404Z,1.90
2024-02-04T04:13:50.870Z,2.20
2024-02-04T04:16:23.406Z,1.30
2024-02-04T04:18:51.709Z,1.73
2024-02-04T04:21:19.903Z,1.77
2024-02-04T04:23:47.977Z,1.53
2024-02-04T04:26:17.590Z,1.90
2024-02-04T04:28:45.669Z,1.60
2024-02-04T04:31:13.922Z,1.40
2024-02-04T04:33:42.204Z,1.70
2024-02-04T04:36:10.583Z,1.57
2024-02-04T04:38:38.621Z,1.27
2024-02-04T04:41:08.200Z,1.60
2024-02-04T04:43:40.557Z,1.63
2024-02-04T04:46:08.813Z,1.60
2024-02-04T04:48:37.050Z,1.70
2024-02-04T04:51:05.244Z,1.40
2024-02-04T04:53:33.282Z,1.20
2024-02-04T04:56:01.314Z,1.30
2024-02-04T04:58:29.373Z,1.30
2024-02-04T05:00:58.885Z,1.37
2024-02-04T05:03:27.111Z,1.13
2024-02-04T05:05:55.507Z,1.53
2024-02-04T05:08:23.609Z,1.30
2024-02-04T05:10:51.712Z,1.10
2024-02-04T05:13:19.924Z,1.03
2024-02-04T05:15:48.535Z,1.57
2024-02-04T05:18:28.101Z,1.20
2024-02-04T05:20:59.464Z,1.10
2024-02-04T05:23:29.068Z,1.40
2024-02-04T05:25:58.645Z,1.70
2024-02-04T05:28:28.190Z,1.53
2024-02-04T05:30:57.712Z,1.00
2024-02-04T05:33:28.543Z,1.00
2024-02-04T05:35:57.982Z,1.30
2024-02-04T05:38:27.277Z,0.97
2024-02-04T05:40:56.725Z,1.20
2024-02-04T05:43:26.090Z,0.93
2024-02-04T05:45:56.218Z,1.30
2024-02-04T05:48:25.726Z,1.20
2024-02-04T05:50:56.546Z,1.20
2024-02-04T05:53:25.864Z,1.13
2024-02-04T05:55:55.100Z,1.00
2024-02-04T05:58:24.354Z,1.10
2024-02-04T06:00:55.223Z,1.20
2024-02-04T06:03:23.374Z,1.10
2024-02-04T06:05:52.643Z,0.97
2024-02-04T06:08:22.169Z,1.07
2024-02-04T06:10:50.322Z,1.47
2024-02-04T06:13:18.424Z,1.70
2024-02-04T06:15:46.509Z,1.10
2024-02-04T06:18:14.720Z,1.10
2024-02-04T06:20:42.796Z,1.37
2024-02-04T06:23:09.880Z,1.10
2024-02-04T06:25:39.462Z,1.30
2024-02-04T06:28:08.053Z,1.30
2024-02-04T06:30:36.285Z,1.80
2024-02-04T06:33:04.846Z,1.80
2024-02-04T06:35:33.742Z,2.10
2024-02-04T06:38:02.235Z,2.00
2024-02-04T06:40:30.356Z,1.60
2024-02-04T06:42:59.865Z,1.60
2024-02-04T06:45:28.043Z,1.47
2024-02-04T06:47:56.312Z,1.10
2024-02-04T06:50:24.405Z,1.30
2024-02-04T06:52:52.509Z,1.57
2024-02-04T06:55:20.639Z,1.27
2024-02-04T06:57:48.792Z,1.40
2024-02-04T07:00:18.893Z,1.87
2024-02-04T07:02:47.002Z,1.40
2024-02-04T07:05:16.806Z,1.17
2024-02-04T07:07:45.396Z,1.50
2024-02-04T07:10:13.566Z,1.50
2024-02-04T07:12:41.770Z,1.33
2024-02-04T07:15:10.582Z,1.00
2024-02-04T07:17:40.230Z,1.17
2024-02-04T07:20:09.328Z,1.40
2024-02-04T07:22:37.981Z,1.37
2024-02-04T07:25:07.035Z,1.20
2024-02-04T07:27:35.514Z,1.20
2024-02-04T07:30:04.671Z,1.50
2024-02-04T07:32:32.877Z,1.57
2024-02-04T07:35:03.023Z,1.37
2024-02-04T07:37:31.244Z,1.10
2024-02-04T07:39:59.346Z,1.30
2024-02-04T07:42:27.499Z,1.57
2024-02-04T07:44:56.030Z,1.33
2024-02-04T07:47:24.189Z,1.30
2024-02-04T07:49:52.980Z,1.23
2024-02-04T07:52:22.421Z,1.47
2024-02-04T07:54:50.557Z,1.33
2024-02-04T07:57:18.699Z,1.00
2024-02-04T07:59:46.753Z,1.60
2024-02-04T08:02:14.852Z,1.30
2024-02-04T08:04:43.350Z,1.20
2024-02-04T08:07:11.529Z,1.20
2024-02-04T08:09:41.059Z,1.10
2024-02-04T08:12:10.735Z,1.00
2024-02-04T08:14:38.768Z,1.47
2024-02-04T08:17:06.808Z,1.10
2024-02-04T08:19:34.956Z,1.13
2024-02-04T08:22:03.163Z,1.10
2024-02-04T08:24:33.238Z,1.13
2024-02-04T08:27:02.749Z,1.27
2024-02-04T08:29:30.788Z,1.20
2024-02-04T08:31:58.917Z,1.30
2024-02-04T08:34:27.420Z,1.43
2024-02-04T08:36:56.012Z,1.60
2024-02-04T08:39:24.500Z,1.17
2024-02-04T08:41:52.549Z,1.83
2024-02-04T08:44:31.676Z,1.30
2024-02-04T08:47:04.099Z,1.40
2024-02-04T08:49:32.321Z,1.37
2024-02-04T08:52:00.501Z,1.30
2024-02-04T08:54:28.776Z,1.00
2024-02-04T08:56:56.956Z,1.43
2024-02-04T08:59:26.527Z,1.23
2024-02-04T09:01:54.623Z,1.33
2024-02-04T09:04:22.913Z,1.27
2024-02-04T09:06:51.142Z,1.23
2024-02-04T09:09:19.289Z,1.03
2024-02-04T09:11:47.366Z,1.30
2024-02-04T09:14:15.494Z,1.73
2024-02-04T09:16:45.113Z,1.53
2024-02-04T09:19:13.462Z,1.03
2024-02-04T09:21:41.708Z,1.70
2024-02-04T09:24:09.999Z,1.30
2024-02-04T09:26:38.036Z,1.40
2024-02-04T09:29:07.268Z,1.33
2024-02-04T09:31:35.473Z,1.30
2024-02-04T09:34:05.316Z,2.20
2024-02-04T09:36:33.668Z,1.20
2024-02-04T09:39:01.833Z,1.20
2024-02-04T09:41:29.989Z,0.93
2024-02-04T09:43:58.899Z,1.20
2024-02-04T09:46:27.772Z,1.03
2024-02-04T09:48:57.462Z,1.00
2024-02-04T09:51:28.271Z,1.20
2024-02-04T09:54:01.273Z,0.80
2024-02-04T09:56:30.562Z,1.23
2024-02-04T09:58:59.342Z,1.07
2024-02-04T10:01:28.566Z,1.10
2024-02-04T10:03:56.743Z,1.37
2024-02-04T10:06:26.471Z,1.20
2024-02-04T10:08:54.992Z,0.90
2024-02-04T10:11:23.214Z,0.83
2024-02-04T10:13:51.757Z,1.10
2024-02-04T10:16:20.390Z,0.90
2024-02-04T10:18:50.552Z,1.10
2024-02-04T10:21:20.754Z,0.90
2024-02-04T10:23:50.432Z,1.20
2024-02-04T10:26:21.239Z,0.90
2024-02-04T10:28:49.750Z,0.80
2024-02-04T10:31:18.120Z,0.87
2024-02-04T10:33:46.661Z,1.10
2024-02-04T10:36:15.023Z,1.00
2024-02-04T10:38:43.151Z,1.00
2024-02-04T10:41:16.953Z,0.67
2024-02-04T10:43:46.528Z,0.67
2024-02-04T10:46:18.408Z,0.40
2024-02-04T10:48:53.659Z,1.10
2024-02-04T10:51:27.362Z,0.80
2024-02-04T10:53:57.639Z,0.90
2024-02-04T10:56:32.972Z,1.00
2024-02-04T10:59:04.001Z,1.07
2024-02-04T11:01:32.708Z,0.70
2024-02-04T11:04:02.957Z,0.70
2024-02-04T11:06:33.076Z,1.00
2024-02-04T11:09:02.007Z,0.70
2024-02-04T11:11:32.157Z,0.90
2024-02-04T11:14:06.894Z,0.90
2024-02-04T11:17:02.960Z,0.77
2024-02-04T11:19:43.118Z,0.80
2024-02-04T11:22:37.038Z,0.80
2024-02-04T11:25:32.250Z,0.90
2024-02-04T11:28:02.012Z,1.00
2024-02-04T11:30:35.395Z,1.17
2024-02-04T11:33:03.924Z,1.20
2024-02-04T11:35:32.686Z,0.60
2024-02-04T11:38:01.380Z,1.00
2024-02-04T11:40:34.366Z,0.67
2024-02-04T11:43:08.774Z,0.70
2024-02-04T11:45:40.841Z,0.80
2024-02-04T11:48:11.088Z,1.03
2024-02-04T11:50:40.502Z,0.80
2024-02-04T11:53:10.005Z,0.70
2024-02-04T11:55:44.874Z,0.73
2024-02-04T11:58:15.646Z,0.60
2024-02-04T12:00:45.898Z,1.03
2024-02-04T12:03:14.300Z,0.70
2024-02-04T12:05:43.071Z,0.70
2024-02-04T12:08:11.403Z,0.60
2024-02-04T12:10:40.793Z,1.00
2024-02-04T12:13:09.557Z,0.70
2024-02-04T12:15:40.970Z,0.97
2024-02-04T12:18:09.725Z,0.70
2024-02-04T12:20:39.060Z,0.70
2024-02-04T12:23:08.076Z,0.90
2024-02-04T12:25:38.300Z,0.70
2024-02-04T12:28:07.973Z,0.90
2024-02-04T12:30:36.562Z,1.00
2024-02-04T12:33:08.234Z,0.77
2024-02-04T12:35:36.478Z,0.70
2024-02-04T12:38:04.812Z,0.67
2024-02-04T12:40:33.468Z,0.60
2024-02-04T12:43:05.770Z,0.70
2024-02-04T12:45:35.370Z,1.10
2024-02-04T12:48:05.448Z,0.73
2024-02-04T12:50:34.384Z,0.47
2024-02-04T12:53:06.926Z,0.60
2024-02-04T12:55:36.149Z,1.00
2024-02-04T12:58:05.240Z,0.70
2024-02-04T13:00:34.131Z,0.77
2024-02-04T13:03:03.733Z,0.60
2024-02-04T13:05:33.969Z,0.60
2024-02-04T13:08:03.902Z,0.70
2024-02-04T13:10:35.012Z,0.80
2024-02-04T13:13:04.035Z,0.60
2024-02-04T13:15:32.852Z,0.70
2024-02-04T13:18:01.205Z,0.70
2024-02-04T13:20:31.785Z,0.50
2024-02-04T13:23:04.760Z,0.80
2024-02-04T13:25:33.197Z,0.50
2024-02-04T13:28:01.579Z,0.73
2024-02-04T13:30:30.128Z,0.60
2024-02-04T13:32:58.677Z,0.73
2024-02-04T13:35:27.073Z,0.60
2024-02-04T13:37:56.532Z,0.90
2024-02-04T13:40:26.396Z,0.80
2024-02-04T13:42:54.678Z,0.60
2024-02-04T13:45:23.618Z,0.70
2024-02-04T13:47:51.786Z,0.60
2024-02-04T13:50:20.042Z,0.67
2024-02-04T13:52:48.169Z,0.60
2024-02-04T13:55:16.399Z,0.80
2024-02-04T13:57:46.073Z,0.70
2024-02-04T14:00:15.601Z,0.57
2024-02-04T14:02:43.645Z,0.70
2024-02-04T14:05:11.972Z,0.70
2024-02-04T14:07:40.419Z,0.60
2024-02-04T14:10:09.911Z,0.80
2024-02-04T14:12:38.140Z,1.00
2024-02-04T14:15:08.539Z,0.53
2024-02-04T14:17:36.639Z,0.60
2024-02-04T14:20:05.683Z,0.70
2024-02-04T14:22:33.818Z,1.00
2024-02-04T14:25:02.108Z,0.60
2024-02-04T14:27:30.904Z,0.70
2024-02-04T14:29:59.038Z,0.87
2024-02-04T14:32:28.585Z,0.70
2024-02-04T14:34:56.839Z,0.70
2024-02-04T14:37:25.093Z,1.33
2024-02-04T14:39:53.527Z,0.97
2024-02-04T14:42:21.671Z,1.07
2024-02-04T14:44:49.821Z,0.87
2024-02-04T14:47:17.886Z,1.63
2024-02-04T14:49:47.442Z,0.90
2024-02-04T14:52:15.893Z,0.57
2024-02-04T14:54:44.522Z,0.97
2024-02-04T14:57:12.699Z,0.90
2024-02-04T14:59:41.281Z,0.70
2024-02-04T15:02:09.685Z,0.80
2024-02-04T15:04:38.131Z,1.10
2024-02-04T15:07:08.199Z,0.70
2024-02-04T15:09:36.957Z,1.20
2024-02-04T15:12:06.075Z,1.07
2024-02-04T15:14:34.701Z,1.20
2024-02-04T15:17:03.357Z,0.93
2024-02-04T15:19:33.787Z,0.90
2024-02-04T15:22:02.522Z,0.90
2024-02-04T15:24:32.712Z,0.90
2024-02-04T15:27:05.661Z,1.13
2024-02-04T15:29:36.872Z,1.10
2024-02-04T15:32:05.733Z,1.00
2024-02-04T15:34:34.962Z,1.10
2024-02-04T15:37:03.214Z,1.10
2024-02-04T15:39:32.707Z,1.13
2024-02-04T15:42:00.851Z,1.20
2024-02-04T15:44:28.908Z,0.83
2024-02-04T15:46:58.122Z,1.20
2024-02-04T15:49:28.103Z,0.80
2024-02-04T15:51:57.077Z,0.90
2024-02-04T15:54:25.994Z,0.97
2024-02-04T15:57:03.673Z,1.07
2024-02-04T15:59:47.714Z,1.27
2024-02-04T16:02:16.140Z,1.20
2024-02-04T16:04:46.460Z,1.30
2024-02-04T16:07:17.203Z,1.10
2024-02-04T16:09:49.257Z,1.37
2024-02-04T16:12:21.379Z,1.20
2024-02-04T16:14:51.375Z,1.10
2024-02-04T16:17:21.337Z,1.30
2024-02-04T16:19:50.395Z,1.00
2024-02-04T16:22:19.738Z,1.00
2024-02-04T16:24:48.597Z,1.20
2024-02-04T16:27:18.132Z,1.10
2024-02-04T16:29:46.453Z,1.20
2024-02-04T16:32:15.408Z,1.27
2024-02-04T16:34:43.790Z,1.00
2024-02-04T16:37:12.158Z,1.13
2024-02-04T16:39:42.237Z,1.03
2024-02-04T16:42:10.885Z,1.37
2024-02-04T16:44:40.334Z,1.47
2024-02-04T16:47:08.447Z,1.63
2024-02-04T16:49:40.452Z,1.10
2024-02-04T16:52:09.000Z,1.23
2024-02-04T16:54:37.208Z,1.70
2024-02-04T16:57:07.984Z,1.67
2024-02-04T16:59:37.181Z,1.20
2024-02-04T17:02:07.147Z,1.97
2024-02-04T17:04:35.866Z,1.77
2024-02-04T17:07:04.674Z,1.87
2024-02-04T17:09:33.507Z,1.47
2024-02-04T17:12:02.114Z,1.30
2024-02-04T17:14:31.112Z,1.43
2024-02-04T17:17:02.474Z,1.37
2024-02-04T17:19:37.074Z,1.50
2024-02-04T17:22:08.789Z,1.43
2024-02-04T17:24:39.485Z,1.60
2024-02-04T17:27:08.516Z,1.67
2024-02-04T17:29:37.141Z,1.80
2024-02-04T17:32:10.416Z,1.67
2024-02-04T17:34:49.444Z,2.20
2024-02-04T17:37:17.770Z,1.70
2024-02-04T17:39:45.974Z,1.77
2024-02-04T17:42:14.717Z,1.93
2024-02-04T17:44:42.874Z,2.23
2024-02-04T17:47:11.621Z,1.60
2024-02-04T17:49:41.333Z,2.13
2024-02-04T17:52:09.542Z,1.80
2024-02-04T17:54:38.312Z,1.70
2024-02-04T17:57:07.143Z,2.40
2024-02-04T17:59:44.215Z,2.67
2024-02-04T18:02:13.647Z,1.60
2024-02-04T18:04:43.178Z,1.60
2024-02-04T18:07:11.416Z,2.10
2024-02-04T18:09:42.659Z,1.73
2024-02-04T18:12:10.877Z,2.07
2024-02-04T18:14:40.840Z,1.50
2024-02-04T18:17:08.999Z,2.20
2024-02-04T18:19:37.265Z,2.23
2024-02-04T18:22:06.852Z,2.57
2024-02-04T18:24:38.245Z,2.37
2024-02-04T18:27:07.288Z,2.20
2024-02-04T18:29:35.520Z,2.20
2024-02-04T18:32:03.638Z,2.47
2024-02-04T18:34:31.794Z,2.10
2024-02-04T18:37:00.260Z,2.87
2024-02-04T18:39:31.142Z,2.60
2024-02-04T18:41:59.553Z,2.10
2024-02-04T18:44:27.990Z,2.73
2024-02-04T18:46:56.381Z,2.93
2024-02-04T18:49:24.829Z,2.40
2024-02-04T18:51:53.301Z,2.27
2024-02-04T18:54:23.084Z,1.53
2024-02-04T18:56:52.895Z,2.00
2024-02-04T18:59:21.301Z,2.10
2024-02-04T19:01:49.900Z,2.30
2024-02-04T19:04:19.740Z,1.80
2024-02-04T19:06:50.385Z,1.70
2024-02-04T19:09:18.846Z,1.80
2024-02-04T19:11:48.092Z,2.20
2024-02-04T19:14:21.156Z,1.83
2024-02-04T19:16:49.646Z,2.33
2024-02-04T19:19:20.493Z,3.10
2024-02-04T19:21:53.554Z,5.70
2024-02-04T19:24:24.176Z,6.80
2024-02-04T19:27:13.212Z,6.50
2024-02-04T19:29:53.717Z,4.03
2024-02-04T19:32:27.443Z,3.00
2024-02-04T19:35:01.384Z,2.80
2024-02-04T19:37:35.651Z,2.57
2024-02-04T19:40:10.100Z,2.50
2024-02-04T19:42:41.920Z,3.43
2024-02-04T19:45:20.206Z,2.93
2024-02-04T19:47:53.798Z,3.70
2024-02-04T19:50:28.142Z,3.10
2024-02-04T19:53:36.794Z,2.90
2024-02-04T19:56:29.630Z,4.20
2024-02-04T19:59:04.658Z,3.37
2024-02-04T20:01:37.890Z,3.13
2024-02-04T20:04:09.848Z,2.53
2024-02-04T20:06:40.713Z,3.97
2024-02-04T20:09:12.083Z,3.30
2024-02-04T20:11:42.717Z,3.13
2024-02-04T20:14:11.145Z,2.70
2024-02-04T20:16:40.904Z,2.40
2024-02-04T20:19:09.416Z,2.47
2024-02-04T20:21:37.899Z,2.20
2024-02-04T20:24:06.840Z,2.90
2024-02-04T20:26:37.514Z,2.20
2024-02-04T20:29:05.979Z,2.33
2024-02-04T20:31:34.741Z,2.50
2024-02-04T20:34:09.337Z,2.43
2024-02-04T20:36:38.007Z,2.60
2024-02-04T20:39:07.173Z,2.67
2024-02-04T20:41:35.675Z,2.83
2024-02-04T20:44:04.078Z,2.67
2024-02-04T20:46:34.500Z,2.40
2024-02-04T20:49:05.295Z,2.00
2024-02-04T20:51:34.702Z,2.13
2024-02-04T20:54:03.180Z,2.33
2024-02-04T20:56:31.648Z,2.70
2024-02-04T20:59:00.059Z,3.03
2024-02-04T21:01:28.652Z,2.33
2024-02-04T21:03:57.193Z,1.97
2024-02-04T21:06:32.212Z,2.77
2024-02-04T21:09:00.674Z,2.20
2024-02-04T21:11:29.942Z,1.70
2024-02-04T21:13:59.169Z,2.90
2024-02-04T21:16:27.636Z,2.13
2024-02-04T21:18:56.164Z,3.10
2024-02-04T21:21:24.711Z,2.07
2024-02-04T21:23:54.444Z,2.47
2024-02-04T21:26:22.910Z,2.67
2024-02-04T21:28:51.314Z,2.10
2024-02-04T21:31:19.777Z,2.73
2024-02-04T21:33:48.351Z,2.73
2024-02-04T21:36:16.845Z,2.17
2024-02-04T21:38:45.217Z,3.00
2024-02-04T21:41:21.214Z,2.30
2024-02-04T21:43:49.606Z,3.87
2024-02-04T21:46:18.122Z,3.10
2024-02-04T21:48:46.673Z,2.50
2024-02-04T21:51:15.089Z,2.37
2024-02-04T21:53:43.451Z,4.87
2024-02-04T21:56:11.815Z,3.07
2024-02-04T21:58:41.561Z,1.80
2024-02-04T22:01:10.205Z,2.23
2024-02-04T22:03:38.699Z,1.90
2024-02-04T22:06:07.228Z,2.27
2024-02-04T22:08:35.664Z,2.60
2024-02-04T22:11:04.345Z,2.57
2024-02-04T22:13:32.786Z,2.30
2024-02-04T22:16:02.572Z,2.87
2024-02-04T22:18:30.993Z,2.20
2024-02-04T22:20:59.354Z,3.27
2024-02-04T22:23:27.753Z,2.53
2024-02-04T22:25:58.380Z,2.77
2024-02-04T22:28:26.991Z,3.10
2024-02-04T22:30:55.487Z,2.70
2024-02-04T22:33:25.897Z,2.50
2024-02-04T22:35:54.264Z,2.53
2024-02-04T22:38:22.657Z,2.00
2024-02-04T22:40:51.002Z,2.23
2024-02-04T22:43:19.476Z,2.30
2024-02-04T22:45:47.919Z,2.50
2024-02-04T22:48:16.425Z,2.20
2024-02-04T22:50:46.282Z,2.37
2024-02-04T22:53:15.852Z,2.40
2024-02-04T22:55:44.229Z,2.37
2024-02-04T22:58:12.701Z,2.40
2024-02-04T23:00:42.077Z,2.67
2024-02-04T23:03:12.474Z,1.90
2024-02-04T23:05:41.013Z,2.50
2024-02-04T23:08:11.006Z,2.73
2024-02-04T23:10:39.439Z,2.47
2024-02-04T23:13:10.291Z,2.63
2024-02-04T23:15:40.148Z,2.40
2024-02-04T23:18:08.684Z,3.10
2024-02-04T23:20:37.101Z,2.20
2024-02-04T23:23:05.759Z,2.20
2024-02-04T23:25:35.565Z,2.30
2024-02-04T23:28:03.994Z,2.13
2024-02-04T23:30:32.818Z,1.90
2024-02-04T23:33:01.328Z,2.27
2024-02-04T23:35:29.904Z,1.90
2024-02-04T23:37:58.280Z,1.83
2024-02-04T23:40:27.387Z,2.87
2024-02-04T23:42:57.225Z,2.30
2024-02-04T23:45:25.706Z,3.07
2024-02-04T23:47:54.416Z,2.40
2024-02-04T23:50:22.784Z,2.13
2024-02-04T23:52:52.218Z,2.27
2024-02-04T23:55:20.727Z,2.20
2024-02-04T23:57:49.192Z,2.17
